sensor_id;sensor_type;location;lat;lon;timestamp;P1;durP1;ratioP1;P2;durP2;ratioP2
4601;SDS011;2313;48.552;9.370;2022-12-04T00:01:53;17.43;;;10.53;;
4601;SDS011;2313;48.552;9.370;2022-12-04T00:04:18;14.27;;;9.23;;
4601;SDS011;2313;48.552;9.370;2022-12-04T00:06:44;17.60;;;9.87;;
4601;SDS011;2313;48.552;9.370;2022-12-04T00:09:09;17.87;;;9.20;;
4601;SDS011;2313;48.552;9.370;2022-12-04T00:11:35;20.07;;;10.33;;
4601;SDS011;2313;48.552;9.370;2022-12-04T00:14:02;19.77;;;10.93;;
4601;SDS011;2313;48.552;9.370;2022-12-04T00:16:28;21.80;;;11.93;;
4601;SDS011;2313;48.552;9.370;2022-12-04T00:18:54;21.42;;;11.50;;
4601;SDS011;2313;48.552;9.370;2022-12-04T00:21:20;20.27;;;11.60;;
4601;SDS011;2313;48.552;9.370;2022-12-04T00:23:47;19.80;;;12.50;;
4601;SDS011;2313;48.552;9.370;2022-12-04T00:26:14;23.93;;;11.57;;
4601;SDS011;2313;48.552;9.370;2022-12-04T00:28:45;20.27;;;11.10;;
4601;SDS011;2313;48.552;9.370;2022-12-04T00:31:15;20.05;;;11.50;;
4601;SDS011;2313;48.552;9.370;2022-12-04T00:33:45;19.83;;;11.15;;
4601;SDS011;2313;48.552;9.370;2022-12-04T00:36:12;19.83;;;10.77;;
4601;SDS011;2313;48.552;9.370;2022-12-04T00:38:40;19.02;;;11.20;;
4601;SDS011;2313;48.552;9.370;2022-12-04T00:41:07;21.17;;;11.80;;
4601;SDS011;2313;48.552;9.370;2022-12-04T00:43:34;22.60;;;12.57;;
4601;SDS011;2313;48.552;9.370;2022-12-04T00:46:00;24.03;;;14.17;;
4601;SDS011;2313;48.552;9.370;2022-12-04T00:48:25;25.40;;;13.13;;
4601;SDS011;2313;48.552;9.370;2022-12-04T00:50:51;24.37;;;13.93;;
4601;SDS011;2313;48.552;9.370;2022-12-04T00:53:18;22.17;;;12.80;;
4601;SDS011;2313;48.552;9.370;2022-12-04T00:55:44;33.92;;;16.67;;
4601;SDS011;2313;48.552;9.370;2022-12-04T00:58:10;31.77;;;14.03;;
4601;SDS011;2313;48.552;9.370;2022-12-04T01:00:37;25.13;;;14.43;;
4601;SDS011;2313;48.552;9.370;2022-12-04T01:03:04;30.48;;;14.38;;
4601;SDS011;2313;48.552;9.370;2022-12-04T01:05:31;30.77;;;14.23;;
4601;SDS011;2313;48.552;9.370;2022-12-04T01:07:57;24.03;;;12.73;;
4601;SDS011;2313;48.552;9.370;2022-12-04T01:10:22;27.23;;;14.20;;
4601;SDS011;2313;48.552;9.370;2022-12-04T01:12:48;25.10;;;13.03;;
4601;SDS011;2313;48.552;9.370;2022-12-04T01:15:15;18.15;;;10.60;;
4601;SDS011;2313;48.552;9.370;2022-12-04T01:17:41;26.50;;;12.80;;
4601;SDS011;2313;48.552;9.370;2022-12-04T01:20:07;25.10;;;12.40;;
4601;SDS011;2313;48.552;9.370;2022-12-04T01:22:33;31.53;;;13.97;;
4601;SDS011;2313;48.552;9.370;2022-12-04T01:24:58;21.47;;;11.90;;
4601;SDS011;2313;48.552;9.370;2022-12-04T01:27:24;23.03;;;12.33;;
4601;SDS011;2313;48.552;9.370;2022-12-04T01:29:50;25.35;;;12.98;;
4601;SDS011;2313;48.552;9.370;2022-12-04T01:32:15;20.17;;;11.17;;
4601;SDS011;2313;48.552;9.370;2022-12-04T01:34:41;22.73;;;12.00;;
4601;SDS011;2313;48.552;9.370;2022-12-04T01:37:07;20.53;;;11.80;;
4601;SDS011;2313;48.552;9.370;2022-12-04T01:39:34;18.37;;;9.90;;
4601;SDS011;2313;48.552;9.370;2022-12-04T01:42:00;18.90;;;10.85;;
4601;SDS011;2313;48.552;9.370;2022-12-04T01:44:28;20.17;;;11.30;;
4601;SDS011;2313;48.552;9.370;2022-12-04T01:46:56;24.42;;;11.57;;
4601;SDS011;2313;48.552;9.370;2022-12-04T01:49:33;23.77;;;10.70;;
4601;SDS011;2313;48.552;9.370;2022-12-04T01:52:15;19.48;;;10.60;;
4601;SDS011;2313;48.552;9.370;2022-12-04T01:54:45;20.55;;;10.85;;
4601;SDS011;2313;48.552;9.370;2022-12-04T01:57:15;19.85;;;9.95;;
4601;SDS011;2313;48.552;9.370;2022-12-04T01:59:56;20.30;;;10.55;;
4601;SDS011;2313;48.552;9.370;2022-12-04T02:02:36;17.38;;;9.48;;
4601;SDS011;2313;48.552;9.370;2022-12-04T02:05:04;15.85;;;8.45;;
4601;SDS011;2313;48.552;9.370;2022-12-04T02:07:33;15.85;;;8.80;;
4601;SDS011;2313;48.552;9.370;2022-12-04T02:10:00;18.10;;;9.85;;
4601;SDS011;2313;48.552;9.370;2022-12-04T02:18:33;15.65;;;8.82;;
4601;SDS011;2313;48.552;9.370;2022-12-04T02:29:40;15.13;;;8.63;;
4601;SDS011;2313;48.552;9.370;2022-12-04T02:34:58;14.93;;;8.73;;
4601;SDS011;2313;48.552;9.370;2022-12-04T02:39:58;20.40;;;10.15;;
4601;SDS011;2313;48.552;9.370;2022-12-04T02:45:34;17.70;;;9.57;;
4601;SDS011;2313;48.552;9.370;2022-12-04T02:48:02;16.63;;;8.98;;
4601;SDS011;2313;48.552;9.370;2022-12-04T02:50:31;17.30;;;8.95;;
4601;SDS011;2313;48.552;9.370;2022-12-04T02:53:06;19.52;;;10.05;;
4601;SDS011;2313;48.552;9.370;2022-12-04T02:55:36;18.55;;;9.48;;
4601;SDS011;2313;48.552;9.370;2022-12-04T02:58:11;18.83;;;10.60;;
4601;SDS011;2313;48.552;9.370;2022-12-04T03:00:40;25.17;;;12.10;;
4601;SDS011;2313;48.552;9.370;2022-12-04T03:03:10;22.02;;;12.13;;
4601;SDS011;2313;48.552;9.370;2022-12-04T03:05:43;28.23;;;13.05;;
4601;SDS011;2313;48.552;9.370;2022-12-04T03:08:24;21.40;;;11.98;;
4601;SDS011;2313;48.552;9.370;2022-12-04T03:10:54;22.20;;;12.85;;
4601;SDS011;2313;48.552;9.370;2022-12-04T03:16:19;23.15;;;12.68;;
4601;SDS011;2313;48.552;9.370;2022-12-04T03:18:56;22.45;;;11.90;;
4601;SDS011;2313;48.552;9.370;2022-12-04T03:21:30;20.77;;;11.48;;
4601;SDS011;2313;48.552;9.370;2022-12-04T03:24:14;26.60;;;11.63;;
4601;SDS011;2313;48.552;9.370;2022-12-04T03:26:47;21.50;;;11.20;;
4601;SDS011;2313;48.552;9.370;2022-12-04T03:29:31;24.38;;;13.45;;
4601;SDS011;2313;48.552;9.370;2022-12-04T03:32:16;21.67;;;11.52;;
4601;SDS011;2313;48.552;9.370;2022-12-04T03:34:58;20.98;;;10.90;;
4601;SDS011;2313;48.552;9.370;2022-12-04T03:37:37;17.77;;;10.38;;
4601;SDS011;2313;48.552;9.370;2022-12-04T03:40:18;17.67;;;10.70;;
4601;SDS011;2313;48.552;9.370;2022-12-04T03:45:54;21.33;;;10.52;;
4601;SDS011;2313;48.552;9.370;2022-12-04T03:48:55;18.20;;;10.00;;
4601;SDS011;2313;48.552;9.370;2022-12-04T03:51:57;19.50;;;10.20;;
4601;SDS011;2313;48.552;9.370;2022-12-04T03:54:28;22.42;;;11.00;;
4601;SDS011;2313;48.552;9.370;2022-12-04T03:56:58;21.48;;;11.13;;
4601;SDS011;2313;48.552;9.370;2022-12-04T03:59:27;20.88;;;10.85;;
4601;SDS011;2313;48.552;9.370;2022-12-04T04:02:31;18.70;;;9.97;;
4601;SDS011;2313;48.552;9.370;2022-12-04T04:05:00;19.92;;;11.07;;
4601;SDS011;2313;48.552;9.370;2022-12-04T04:07:32;20.70;;;11.40;;
4601;SDS011;2313;48.552;9.370;2022-12-04T04:10:04;27.58;;;10.52;;
4601;SDS011;2313;48.552;9.370;2022-12-04T04:12:48;20.52;;;10.70;;
4601;SDS011;2313;48.552;9.370;2022-12-04T04:15:41;20.47;;;10.73;;
4601;SDS011;2313;48.552;9.370;2022-12-04T04:18:29;21.83;;;10.38;;
4601;SDS011;2313;48.552;9.370;2022-12-04T04:21:15;18.48;;;10.57;;
4601;SDS011;2313;48.552;9.370;2022-12-04T04:24:06;18.90;;;9.82;;
4601;SDS011;2313;48.552;9.370;2022-12-04T04:26:41;16.33;;;9.68;;
4601;SDS011;2313;48.552;9.370;2022-12-04T04:29:09;20.73;;;11.20;;
4601;SDS011;2313;48.552;9.370;2022-12-04T04:31:49;19.03;;;10.17;;
4601;SDS011;2313;48.552;9.370;2022-12-04T04:36:53;19.45;;;10.43;;
4601;SDS011;2313;48.552;9.370;2022-12-04T04:44:36;18.23;;;10.10;;
4601;SDS011;2313;48.552;9.370;2022-12-04T04:47:33;16.13;;;9.67;;
4601;SDS011;2313;48.552;9.370;2022-12-04T04:50:08;15.02;;;8.75;;
4601;SDS011;2313;48.552;9.370;2022-12-04T04:52:36;17.13;;;8.60;;
4601;SDS011;2313;48.552;9.370;2022-12-04T04:55:04;16.47;;;8.80;;
4601;SDS011;2313;48.552;9.370;2022-12-04T04:57:31;15.35;;;9.23;;
4601;SDS011;2313;48.552;9.370;2022-12-04T05:00:04;13.85;;;7.88;;
4601;SDS011;2313;48.552;9.370;2022-12-04T05:02:32;12.98;;;8.50;;
4601;SDS011;2313;48.552;9.370;2022-12-04T05:04:58;14.32;;;8.50;;
4601;SDS011;2313;48.552;9.370;2022-12-04T05:07:23;13.73;;;8.30;;
4601;SDS011;2313;48.552;9.370;2022-12-04T05:09:49;10.53;;;7.20;;
4601;SDS011;2313;48.552;9.370;2022-12-04T05:12:15;15.90;;;8.40;;
4601;SDS011;2313;48.552;9.370;2022-12-04T05:14:40;14.43;;;8.60;;
4601;SDS011;2313;48.552;9.370;2022-12-04T05:17:06;13.73;;;8.27;;
4601;SDS011;2313;48.552;9.370;2022-12-04T05:19:32;12.83;;;7.60;;
4601;SDS011;2313;48.552;9.370;2022-12-04T05:22:17;15.32;;;8.00;;
4601;SDS011;2313;48.552;9.370;2022-12-04T05:25:03;13.40;;;8.75;;
4601;SDS011;2313;48.552;9.370;2022-12-04T05:27:29;14.57;;;8.68;;
4601;SDS011;2313;48.552;9.370;2022-12-04T05:29:56;14.85;;;8.75;;
4601;SDS011;2313;48.552;9.370;2022-12-04T05:32:23;15.15;;;9.70;;
4601;SDS011;2313;48.552;9.370;2022-12-04T05:34:51;16.02;;;11.02;;
4601;SDS011;2313;48.552;9.370;2022-12-04T05:37:19;15.15;;;8.98;;
4601;SDS011;2313;48.552;9.370;2022-12-04T05:39:45;14.52;;;8.20;;
4601;SDS011;2313;48.552;9.370;2022-12-04T05:42:11;17.87;;;9.77;;
4601;SDS011;2313;48.552;9.370;2022-12-04T05:44:37;14.55;;;8.75;;
4601;SDS011;2313;48.552;9.370;2022-12-04T05:47:02;14.07;;;8.60;;
4601;SDS011;2313;48.552;9.370;2022-12-04T05:49:28;17.13;;;8.60;;
4601;SDS011;2313;48.552;9.370;2022-12-04T05:51:54;11.45;;;7.13;;
4601;SDS011;2313;48.552;9.370;2022-12-04T05:54:20;12.57;;;7.40;;
4601;SDS011;2313;48.552;9.370;2022-12-04T05:56:46;13.87;;;8.30;;
4601;SDS011;2313;48.552;9.370;2022-12-04T05:59:12;14.60;;;8.20;;
4601;SDS011;2313;48.552;9.370;2022-12-04T06:01:38;14.77;;;8.02;;
4601;SDS011;2313;48.552;9.370;2022-12-04T06:04:04;15.17;;;8.87;;
4601;SDS011;2313;48.552;9.370;2022-12-04T06:06:29;14.60;;;8.33;;
4601;SDS011;2313;48.552;9.370;2022-12-04T06:08:56;16.10;;;8.70;;
4601;SDS011;2313;48.552;9.370;2022-12-04T06:11:24;16.40;;;8.38;;
4601;SDS011;2313;48.552;9.370;2022-12-04T06:13:54;12.95;;;8.50;;
4601;SDS011;2313;48.552;9.370;2022-12-04T06:16:25;14.55;;;8.60;;
4601;SDS011;2313;48.552;9.370;2022-12-04T06:18:53;12.57;;;8.18;;
4601;SDS011;2313;48.552;9.370;2022-12-04T06:21:21;16.70;;;9.90;;
4601;SDS011;2313;48.552;9.370;2022-12-04T06:23:47;13.70;;;8.25;;
4601;SDS011;2313;48.552;9.370;2022-12-04T06:26:13;15.63;;;9.17;;
4601;SDS011;2313;48.552;9.370;2022-12-04T06:28:38;15.47;;;9.93;;
4601;SDS011;2313;48.552;9.370;2022-12-04T06:31:08;17.50;;;9.30;;
4601;SDS011;2313;48.552;9.370;2022-12-04T06:33:35;17.25;;;10.05;;
4601;SDS011;2313;48.552;9.370;2022-12-04T06:36:04;16.65;;;11.60;;
4601;SDS011;2313;48.552;9.370;2022-12-04T06:38:31;31.05;;;22.38;;
4601;SDS011;2313;48.552;9.370;2022-12-04T06:40:58;17.30;;;11.07;;
4601;SDS011;2313;48.552;9.370;2022-12-04T06:43:27;24.98;;;12.85;;
4601;SDS011;2313;48.552;9.370;2022-12-04T06:46:09;19.67;;;10.63;;
4601;SDS011;2313;48.552;9.370;2022-12-04T06:48:36;24.95;;;12.65;;
4601;SDS011;2313;48.552;9.370;2022-12-04T06:51:04;19.93;;;10.60;;
4601;SDS011;2313;48.552;9.370;2022-12-04T06:53:44;20.02;;;10.85;;
4601;SDS011;2313;48.552;9.370;2022-12-04T06:56:11;15.02;;;9.70;;
4601;SDS011;2313;48.552;9.370;2022-12-04T06:58:41;14.07;;;9.38;;
4601;SDS011;2313;48.552;9.370;2022-12-04T07:01:09;15.70;;;10.80;;
4601;SDS011;2313;48.552;9.370;2022-12-04T07:03:36;18.10;;;10.50;;
4601;SDS011;2313;48.552;9.370;2022-12-04T07:06:24;16.42;;;10.10;;
4601;SDS011;2313;48.552;9.370;2022-12-04T07:08:51;19.80;;;12.40;;
4601;SDS011;2313;48.552;9.370;2022-12-04T07:11:21;17.13;;;10.52;;
4601;SDS011;2313;48.552;9.370;2022-12-04T07:13:47;17.70;;;9.60;;
4601;SDS011;2313;48.552;9.370;2022-12-04T07:16:14;16.77;;;8.95;;
4601;SDS011;2313;48.552;9.370;2022-12-04T07:18:42;18.75;;;11.57;;
4601;SDS011;2313;48.552;9.370;2022-12-04T07:21:09;19.83;;;11.43;;
4601;SDS011;2313;48.552;9.370;2022-12-04T07:23:36;17.20;;;10.10;;
4601;SDS011;2313;48.552;9.370;2022-12-04T07:26:05;17.17;;;9.50;;
4601;SDS011;2313;48.552;9.370;2022-12-04T07:28:32;19.92;;;9.90;;
4601;SDS011;2313;48.552;9.370;2022-12-04T07:31:01;16.60;;;9.73;;
4601;SDS011;2313;48.552;9.370;2022-12-04T07:33:34;16.73;;;9.80;;
4601;SDS011;2313;48.552;9.370;2022-12-04T07:36:02;16.73;;;9.30;;
4601;SDS011;2313;48.552;9.370;2022-12-04T07:38:29;18.15;;;10.00;;
4601;SDS011;2313;48.552;9.370;2022-12-04T07:40:57;17.70;;;10.20;;
4601;SDS011;2313;48.552;9.370;2022-12-04T07:43:23;22.00;;;10.77;;
4601;SDS011;2313;48.552;9.370;2022-12-04T07:45:49;18.15;;;9.90;;
4601;SDS011;2313;48.552;9.370;2022-12-04T07:48:15;15.90;;;9.87;;
4601;SDS011;2313;48.552;9.370;2022-12-04T07:50:40;18.10;;;10.50;;
4601;SDS011;2313;48.552;9.370;2022-12-04T07:53:06;22.00;;;10.57;;
4601;SDS011;2313;48.552;9.370;2022-12-04T07:55:31;21.60;;;11.20;;
4601;SDS011;2313;48.552;9.370;2022-12-04T07:57:57;19.40;;;12.17;;
4601;SDS011;2313;48.552;9.370;2022-12-04T08:00:22;20.90;;;11.90;;
4601;SDS011;2313;48.552;9.370;2022-12-04T08:02:49;20.43;;;9.73;;
4601;SDS011;2313;48.552;9.370;2022-12-04T08:05:15;18.23;;;9.70;;
4601;SDS011;2313;48.552;9.370;2022-12-04T08:07:41;18.73;;;10.32;;
4601;SDS011;2313;48.552;9.370;2022-12-04T08:10:07;18.50;;;10.03;;
4601;SDS011;2313;48.552;9.370;2022-12-04T08:12:32;26.47;;;11.63;;
4601;SDS011;2313;48.552;9.370;2022-12-04T08:14:58;21.60;;;10.83;;
4601;SDS011;2313;48.552;9.370;2022-12-04T08:17:24;20.70;;;11.07;;
4601;SDS011;2313;48.552;9.370;2022-12-04T08:19:50;20.33;;;12.50;;
4601;SDS011;2313;48.552;9.370;2022-12-04T08:22:15;22.93;;;11.87;;
4601;SDS011;2313;48.552;9.370;2022-12-04T08:24:41;20.00;;;11.77;;
4601;SDS011;2313;48.552;9.370;2022-12-04T08:27:07;30.63;;;16.20;;
4601;SDS011;2313;48.552;9.370;2022-12-04T08:29:32;26.27;;;14.30;;
4601;SDS011;2313;48.552;9.370;2022-12-04T08:31:58;41.30;;;20.73;;
4601;SDS011;2313;48.552;9.370;2022-12-04T08:34:24;72.50;;;36.03;;
4601;SDS011;2313;48.552;9.370;2022-12-04T08:36:49;59.73;;;30.47;;
4601;SDS011;2313;48.552;9.370;2022-12-04T08:39:15;39.63;;;23.70;;
4601;SDS011;2313;48.552;9.370;2022-12-04T08:41:41;21.63;;;12.90;;
4601;SDS011;2313;48.552;9.370;2022-12-04T08:44:07;23.40;;;11.07;;
4601;SDS011;2313;48.552;9.370;2022-12-04T08:46:33;19.47;;;11.70;;
4601;SDS011;2313;48.552;9.370;2022-12-04T08:48:58;20.77;;;11.20;;
4601;SDS011;2313;48.552;9.370;2022-12-04T08:51:26;18.90;;;11.20;;
4601;SDS011;2313;48.552;9.370;2022-12-04T08:53:57;18.67;;;11.15;;
4601;SDS011;2313;48.552;9.370;2022-12-04T08:56:24;20.17;;;11.57;;
4601;SDS011;2313;48.552;9.370;2022-12-04T08:58:50;21.07;;;12.10;;
4601;SDS011;2313;48.552;9.370;2022-12-04T09:01:16;20.27;;;11.70;;
4601;SDS011;2313;48.552;9.370;2022-12-04T09:03:42;19.40;;;10.47;;
4601;SDS011;2313;48.552;9.370;2022-12-04T09:06:09;18.33;;;10.47;;
4601;SDS011;2313;48.552;9.370;2022-12-04T09:08:36;18.47;;;11.13;;
4601;SDS011;2313;48.552;9.370;2022-12-04T09:11:05;25.60;;;12.50;;
4601;SDS011;2313;48.552;9.370;2022-12-04T09:13:42;24.15;;;14.85;;
4601;SDS011;2313;48.552;9.370;2022-12-04T09:16:09;21.88;;;11.90;;
4601;SDS011;2313;48.552;9.370;2022-12-04T09:18:38;22.20;;;11.98;;
4601;SDS011;2313;48.552;9.370;2022-12-04T09:21:06;24.02;;;11.73;;
4601;SDS011;2313;48.552;9.370;2022-12-04T09:23:33;21.75;;;11.48;;
4601;SDS011;2313;48.552;9.370;2022-12-04T09:26:00;22.88;;;12.63;;
4601;SDS011;2313;48.552;9.370;2022-12-04T09:28:26;22.23;;;11.25;;
4601;SDS011;2313;48.552;9.370;2022-12-04T09:31:02;24.83;;;13.05;;
4601;SDS011;2313;48.552;9.370;2022-12-04T09:33:29;24.58;;;13.05;;
4601;SDS011;2313;48.552;9.370;2022-12-04T09:35:59;25.70;;;14.40;;
4601;SDS011;2313;48.552;9.370;2022-12-04T09:38:26;26.35;;;13.38;;
4601;SDS011;2313;48.552;9.370;2022-12-04T09:41:01;25.02;;;12.50;;
4601;SDS011;2313;48.552;9.370;2022-12-04T09:47:08;21.95;;;12.38;;
4601;SDS011;2313;48.552;9.370;2022-12-04T09:49:25;22.00;;;10.88;;
4601;SDS011;2313;48.552;9.370;2022-12-04T09:51:58;30.73;;;18.38;;
4601;SDS011;2313;48.552;9.370;2022-12-04T09:54:28;30.70;;;16.02;;
4601;SDS011;2313;48.552;9.370;2022-12-04T09:57:00;22.45;;;11.98;;
4601;SDS011;2313;48.552;9.370;2022-12-04T09:59:34;22.42;;;11.65;;
4601;SDS011;2313;48.552;9.370;2022-12-04T10:04:57;20.90;;;11.48;;
4601;SDS011;2313;48.552;9.370;2022-12-04T10:07:39;24.17;;;12.03;;
4601;SDS011;2313;48.552;9.370;2022-12-04T10:15:37;30.58;;;16.00;;
4601;SDS011;2313;48.552;9.370;2022-12-04T10:24:10;44.33;;;26.20;;
4601;SDS011;2313;48.552;9.370;2022-12-04T10:26:44;41.25;;;20.20;;
4601;SDS011;2313;48.552;9.370;2022-12-04T10:31:55;31.30;;;14.70;;
4601;SDS011;2313;48.552;9.370;2022-12-04T10:34:29;50.90;;;26.20;;
4601;SDS011;2313;48.552;9.370;2022-12-04T10:36:58;43.15;;;21.13;;
4601;SDS011;2313;48.552;9.370;2022-12-04T10:39:29;30.00;;;16.05;;
4601;SDS011;2313;48.552;9.370;2022-12-04T10:42:20;30.02;;;14.52;;
4601;SDS011;2313;48.552;9.370;2022-12-04T10:44:48;35.10;;;16.75;;
4601;SDS011;2313;48.552;9.370;2022-12-04T10:47:14;34.30;;;15.73;;
4601;SDS011;2313;48.552;9.370;2022-12-04T10:49:40;33.83;;;16.50;;
4601;SDS011;2313;48.552;9.370;2022-12-04T10:52:06;30.88;;;15.30;;
4601;SDS011;2313;48.552;9.370;2022-12-04T10:54:36;34.22;;;15.95;;
4601;SDS011;2313;48.552;9.370;2022-12-04T10:57:17;51.20;;;22.50;;
4601;SDS011;2313;48.552;9.370;2022-12-04T10:59:50;33.80;;;18.53;;
4601;SDS011;2313;48.552;9.370;2022-12-04T11:02:21;34.60;;;15.65;;
4601;SDS011;2313;48.552;9.370;2022-12-04T11:05:41;32.90;;;14.77;;
4601;SDS011;2313;48.552;9.370;2022-12-04T11:07:58;35.15;;;14.60;;
4601;SDS011;2313;48.552;9.370;2022-12-04T11:15:41;38.90;;;18.98;;
4601;SDS011;2313;48.552;9.370;2022-12-04T11:18:18;26.48;;;15.65;;
4601;SDS011;2313;48.552;9.370;2022-12-04T11:20:49;29.77;;;14.20;;
4601;SDS011;2313;48.552;9.370;2022-12-04T11:23:28;43.33;;;17.33;;
4601;SDS011;2313;48.552;9.370;2022-12-04T11:26:05;24.88;;;13.48;;
4601;SDS011;2313;48.552;9.370;2022-12-04T11:28:31;27.98;;;14.50;;
4601;SDS011;2313;48.552;9.370;2022-12-04T11:30:59;29.52;;;14.20;;
4601;SDS011;2313;48.552;9.370;2022-12-04T11:35:58;29.77;;;13.87;;
4601;SDS011;2313;48.552;9.370;2022-12-04T11:38:27;25.75;;;14.20;;
4601;SDS011;2313;48.552;9.370;2022-12-04T11:40:55;28.30;;;13.83;;
4601;SDS011;2313;48.552;9.370;2022-12-04T11:43:26;27.15;;;14.80;;
4601;SDS011;2313;48.552;9.370;2022-12-04T11:45:53;40.50;;;22.93;;
4601;SDS011;2313;48.552;9.370;2022-12-04T11:48:24;27.98;;;15.25;;
4601;SDS011;2313;48.552;9.370;2022-12-04T11:56:19;27.60;;;13.05;;
4601;SDS011;2313;48.552;9.370;2022-12-04T12:08:54;35.67;;;16.17;;
4601;SDS011;2313;48.552;9.370;2022-12-04T12:11:34;36.20;;;14.98;;
4601;SDS011;2313;48.552;9.370;2022-12-04T12:14:06;29.87;;;15.63;;
4601;SDS011;2313;48.552;9.370;2022-12-04T12:23:19;29.02;;;15.35;;
4601;SDS011;2313;48.552;9.370;2022-12-04T12:34:15;24.92;;;13.50;;
4601;SDS011;2313;48.552;9.370;2022-12-04T12:37:01;31.83;;;15.97;;
4601;SDS011;2313;48.552;9.370;2022-12-04T12:39:41;28.20;;;14.90;;
4601;SDS011;2313;48.552;9.370;2022-12-04T12:42:24;29.00;;;16.85;;
4601;SDS011;2313;48.552;9.370;2022-12-04T12:48:10;28.73;;;14.77;;
4601;SDS011;2313;48.552;9.370;2022-12-04T12:50:48;28.05;;;14.45;;
4601;SDS011;2313;48.552;9.370;2022-12-04T12:53:19;26.90;;;14.05;;
4601;SDS011;2313;48.552;9.370;2022-12-04T12:55:49;29.35;;;14.98;;
4601;SDS011;2313;48.552;9.370;2022-12-04T12:58:26;28.52;;;14.45;;
4601;SDS011;2313;48.552;9.370;2022-12-04T13:01:04;26.97;;;13.33;;
4601;SDS011;2313;48.552;9.370;2022-12-04T13:04:12;33.33;;;13.68;;
4601;SDS011;2313;48.552;9.370;2022-12-04T13:07:03;33.00;;;15.17;;
4601;SDS011;2313;48.552;9.370;2022-12-04T13:13:28;28.63;;;15.88;;
4601;SDS011;2313;48.552;9.370;2022-12-04T13:21:39;29.45;;;14.77;;
4601;SDS011;2313;48.552;9.370;2022-12-04T13:24:25;24.88;;;15.25;;
4601;SDS011;2313;48.552;9.370;2022-12-04T13:33:05;44.17;;;23.10;;
4601;SDS011;2313;48.552;9.370;2022-12-04T13:41:16;75.90;;;34.53;;
4601;SDS011;2313;48.552;9.370;2022-12-04T13:43:45;83.55;;;41.10;;
4601;SDS011;2313;48.552;9.370;2022-12-04T13:49:33;65.57;;;32.17;;
4601;SDS011;2313;48.552;9.370;2022-12-04T13:52:02;140.93;;;64.07;;
4601;SDS011;2313;48.552;9.370;2022-12-04T13:57:19;144.57;;;74.93;;
4601;SDS011;2313;48.552;9.370;2022-12-04T13:59:44;63.30;;;36.28;;
4601;SDS011;2313;48.552;9.370;2022-12-04T14:02:20;48.07;;;28.23;;
4601;SDS011;2313;48.552;9.370;2022-12-04T14:10:07;35.47;;;19.00;;
4601;SDS011;2313;48.552;9.370;2022-12-04T14:12:48;37.88;;;20.70;;
4601;SDS011;2313;48.552;9.370;2022-12-04T14:15:25;34.28;;;17.63;;
4601;SDS011;2313;48.552;9.370;2022-12-04T14:17:59;44.60;;;24.27;;
4601;SDS011;2313;48.552;9.370;2022-12-04T14:20:31;35.15;;;20.10;;
4601;SDS011;2313;48.552;9.370;2022-12-04T14:23:32;37.10;;;18.25;;
4601;SDS011;2313;48.552;9.370;2022-12-04T14:25:57;28.13;;;14.52;;
4601;SDS011;2313;48.552;9.370;2022-12-04T14:28:25;26.15;;;15.77;;
4601;SDS011;2313;48.552;9.370;2022-12-04T14:31:22;29.45;;;14.63;;
4601;SDS011;2313;48.552;9.370;2022-12-04T14:34:20;39.37;;;17.90;;
4601;SDS011;2313;48.552;9.370;2022-12-04T14:36:49;34.28;;;19.73;;
4601;SDS011;2313;48.552;9.370;2022-12-04T14:39:39;38.80;;;17.37;;
4601;SDS011;2313;48.552;9.370;2022-12-04T14:42:15;36.03;;;18.33;;
4601;SDS011;2313;48.552;9.370;2022-12-04T14:44:43;36.13;;;17.55;;
4601;SDS011;2313;48.552;9.370;2022-12-04T14:52:31;32.90;;;16.58;;
4601;SDS011;2313;48.552;9.370;2022-12-04T14:55:13;38.47;;;19.20;;
4601;SDS011;2313;48.552;9.370;2022-12-04T14:58:22;52.75;;;27.05;;
4601;SDS011;2313;48.552;9.370;2022-12-04T15:00:59;44.15;;;24.67;;
4601;SDS011;2313;48.552;9.370;2022-12-04T15:03:29;34.20;;;18.17;;
4601;SDS011;2313;48.552;9.370;2022-12-04T15:06:07;40.20;;;23.50;;
4601;SDS011;2313;48.552;9.370;2022-12-04T15:08:46;53.97;;;29.10;;
4601;SDS011;2313;48.552;9.370;2022-12-04T15:11:18;57.50;;;23.87;;
4601;SDS011;2313;48.552;9.370;2022-12-04T15:14:04;46.80;;;22.83;;
4601;SDS011;2313;48.552;9.370;2022-12-04T15:16:36;51.17;;;22.57;;
4601;SDS011;2313;48.552;9.370;2022-12-04T15:19:02;38.80;;;18.40;;
4601;SDS011;2313;48.552;9.370;2022-12-04T15:21:38;33.00;;;16.80;;
4601;SDS011;2313;48.552;9.370;2022-12-04T15:24:08;41.85;;;19.90;;
4601;SDS011;2313;48.552;9.370;2022-12-04T15:26:35;58.97;;;25.98;;
4601;SDS011;2313;48.552;9.370;2022-12-04T15:29:02;50.03;;;20.25;;
4601;SDS011;2313;48.552;9.370;2022-12-04T15:31:33;51.85;;;26.85;;
4601;SDS011;2313;48.552;9.370;2022-12-04T15:34:04;41.07;;;21.40;;
4601;SDS011;2313;48.552;9.370;2022-12-04T15:39:05;50.55;;;24.27;;
4601;SDS011;2313;48.552;9.370;2022-12-04T15:41:32;46.57;;;22.83;;
4601;SDS011;2313;48.552;9.370;2022-12-04T15:43:59;137.95;;;72.53;;
4601;SDS011;2313;48.552;9.370;2022-12-04T15:46:30;40.05;;;19.30;;
4601;SDS011;2313;48.552;9.370;2022-12-04T15:49:03;40.40;;;18.23;;
4601;SDS011;2313;48.552;9.370;2022-12-04T15:51:49;38.25;;;19.40;;
4601;SDS011;2313;48.552;9.370;2022-12-04T15:54:24;38.90;;;18.77;;
4601;SDS011;2313;48.552;9.370;2022-12-04T15:57:00;37.00;;;20.00;;
4601;SDS011;2313;48.552;9.370;2022-12-04T15:59:48;45.22;;;23.42;;
4601;SDS011;2313;48.552;9.370;2022-12-04T16:02:22;41.90;;;21.47;;
4601;SDS011;2313;48.552;9.370;2022-12-04T16:05:12;36.70;;;19.20;;
4601;SDS011;2313;48.552;9.370;2022-12-04T16:07:57;42.50;;;20.40;;
4601;SDS011;2313;48.552;9.370;2022-12-04T16:12:56;42.55;;;21.83;;
4601;SDS011;2313;48.552;9.370;2022-12-04T16:15:33;45.47;;;20.52;;
4601;SDS011;2313;48.552;9.370;2022-12-04T16:18:03;36.83;;;20.05;;
4601;SDS011;2313;48.552;9.370;2022-12-04T16:20:33;36.30;;;19.10;;
4601;SDS011;2313;48.552;9.370;2022-12-04T16:23:00;44.55;;;23.77;;
4601;SDS011;2313;48.552;9.370;2022-12-04T16:25:26;61.55;;;28.27;;
4601;SDS011;2313;48.552;9.370;2022-12-04T16:27:55;48.08;;;20.98;;
4601;SDS011;2313;48.552;9.370;2022-12-04T16:30:22;54.58;;;23.13;;
4601;SDS011;2313;48.552;9.370;2022-12-04T16:32:48;52.07;;;25.07;;
4601;SDS011;2313;48.552;9.370;2022-12-04T16:35:16;52.75;;;26.75;;
4601;SDS011;2313;48.552;9.370;2022-12-04T16:37:42;62.57;;;31.80;;
4601;SDS011;2313;48.552;9.370;2022-12-04T16:40:09;57.10;;;30.80;;
4601;SDS011;2313;48.552;9.370;2022-12-04T16:42:36;43.53;;;21.77;;
4601;SDS011;2313;48.552;9.370;2022-12-04T16:45:02;42.53;;;21.03;;
4601;SDS011;2313;48.552;9.370;2022-12-04T16:47:28;36.92;;;19.50;;
4601;SDS011;2313;48.552;9.370;2022-12-04T16:49:54;43.40;;;25.17;;
4601;SDS011;2313;48.552;9.370;2022-12-04T16:52:19;78.10;;;46.90;;
4601;SDS011;2313;48.552;9.370;2022-12-04T16:54:45;67.10;;;43.33;;
4601;SDS011;2313;48.552;9.370;2022-12-04T16:57:11;39.43;;;20.63;;
4601;SDS011;2313;48.552;9.370;2022-12-04T16:59:37;32.87;;;17.53;;
4601;SDS011;2313;48.552;9.370;2022-12-04T17:02:03;34.03;;;17.10;;
4601;SDS011;2313;48.552;9.370;2022-12-04T17:04:37;41.00;;;18.40;;
4601;SDS011;2313;48.552;9.370;2022-12-04T17:07:03;37.30;;;17.50;;
4601;SDS011;2313;48.552;9.370;2022-12-04T17:09:28;39.83;;;19.40;;
4601;SDS011;2313;48.552;9.370;2022-12-04T17:11:54;45.07;;;18.97;;
4601;SDS011;2313;48.552;9.370;2022-12-04T17:14:19;40.13;;;18.87;;
4601;SDS011;2313;48.552;9.370;2022-12-04T17:16:45;33.17;;;16.73;;
4601;SDS011;2313;48.552;9.370;2022-12-04T17:19:11;37.90;;;17.37;;
4601;SDS011;2313;48.552;9.370;2022-12-04T17:21:37;40.13;;;20.65;;
4601;SDS011;2313;48.552;9.370;2022-12-04T17:24:04;42.28;;;20.40;;
4601;SDS011;2313;48.552;9.370;2022-12-04T17:26:30;39.03;;;20.02;;
4601;SDS011;2313;48.552;9.370;2022-12-04T17:28:56;38.07;;;18.17;;
4601;SDS011;2313;48.552;9.370;2022-12-04T17:31:22;38.03;;;20.43;;
4601;SDS011;2313;48.552;9.370;2022-12-04T17:33:50;40.17;;;20.25;;
4601;SDS011;2313;48.552;9.370;2022-12-04T17:36:17;39.08;;;20.55;;